Time;durP1;ratioP1;P1;durP2;ratioP2;P2;SDS_P1;SDS_P2;PMS_P1;PMS_P2;Temp;Humidity;BMP_temperature;BMP_pressure;BME280_temperature;BME280_humidity;BME280_pressure;Samples;Min_cycle;Max_cycle;Signal;HPM_P1;HPM_P2
2022/06/02 00:02:43;;;;;;;10.23;3.28;;;7.40;99.90;;;;;;5052935;28;20040;-68
2022/06/02 00:05:22;;;;;;;3.58;3.10;;;7.40;99.90;;;;;;5053559;28;20051;-66
2022/06/02 00:08:08;;;;;;;6.60;3.28;;;7.40;99.90;;;;;;5053489;28;20094;-67
2022/06/02 00:10:55;;;;;;;13.15;3.22;;;7.50;99.90;;;;;;5053697;28;20059;-67
2022/06/02 00:13:30;;;;;;;5.38;2.95;;;7.50;99.90;;;;;;5048594;28;20024;-66
2022/06/02 00:16:09;;;;;;;6.38;2.97;;;7.50;99.90;;;;;;5050063;28;20052;-67
2022/06/02 00:18:49;;;;;;;7.88;3.45;;;7.50;99.90;;;;;;5106520;22;20052;-68
2022/06/02 00:21:15;;;;;;;7.20;3.17;;;7.50;99.90;;;;;;5053386;28;20029;-68
2022/06/02 00:23:56;;;;;;;6.68;3.05;;;7.70;99.90;;;;;;5053005;28;20017;-68
2022/06/02 00:26:45;;;;;;;8.18;3.65;;;7.70;99.90;;;;;;5053355;28;20488;-68
2022/06/02 00:29:14;;;;;;;5.95;3.47;;;7.70;99.90;;;;;;5042431;28;20018;-68
2022/06/02 00:31:53;;;;;;;8.13;3.83;;;7.70;99.90;;;;;;5033234;28;20022;-68
2022/06/02 00:34:44;;;;;;;7.03;4.03;;;7.70;99.90;;;;;;5033476;28;20029;-68
2022/06/02 00:37:28;;;;;;;12.45;3.78;;;7.90;99.90;;;;;;5033401;28;20021;-68
2022/06/02 00:39:55;;;;;;;6.32;4.13;;;8.00;99.90;;;;;;5033158;28;20100;-68
2022/06/02 00:42:24;;;;;;;7.70;4.28;;;8.10;99.90;;;;;;5026882;28;20037;-68
2022/06/02 00:45:08;;;;;;;9.13;3.90;;;8.20;99.90;;;;;;5026606;28;20382;-68
2022/06/02 00:47:43;;;;;;;7.13;3.60;;;8.50;99.90;;;;;;5029929;28;20033;-68
2022/06/02 00:50:37;;;;;;;6.03;3.80;;;8.90;99.90;;;;;;5032983;28;20084;-68
2022/06/02 00:53:14;;;;;;;8.20;3.70;;;9.20;99.90;;;;;;5027549;28;20033;-68
2022/06/02 00:58:55;;;;;;;9.65;4.68;;;9.60;99.90;;;;;;5033288;28;20504;-68
2022/06/02 01:01:27;;;;;;;8.02;3.70;;;9.80;99.90;;;;;;5033498;28;20041;-68
2022/06/02 01:03:55;;;;;;;10.32;4.82;;;9.90;99.90;;;;;;5033488;28;20109;-68
2022/06/02 01:06:27;;;;;;;13.68;5.45;;;10.00;99.90;;;;;;5015494;28;20029;-68
2022/06/02 01:08:59;;;;;;;13.25;5.13;;;10.00;99.90;;;;;;5033414;28;20038;-68
2022/06/02 01:12:02;;;;;;;15.75;6.35;;;10.20;99.90;;;;;;5033318;28;20044;-68
2022/06/02 01:15:02;;;;;;;9.13;5.00;;;10.20;99.90;;;;;;5033213;28;20032;-68
2022/06/02 01:17:56;;;;;;;11.05;5.68;;;10.20;99.90;;;;;;5033784;28;20053;-68
2022/06/02 01:20:36;;;;;;;6.13;4.30;;;10.30;99.90;;;;;;5033194;28;20106;-68
2022/06/02 01:23:31;;;;;;;17.55;5.38;;;10.30;99.90;;;;;;5033434;28;20283;-68
2022/06/02 01:26:06;;;;;;;;;;;10.20;99.90;;;;;;5034068;28;20017;-68
2022/06/02 01:28:38;;;;;;;7.30;4.55;;;10.20;99.90;;;;;;5032993;28;19990;-68
2022/06/02 01:31:37;;;;;;;9.07;5.03;;;10.20;99.90;;;;;;5015456;28;20033;-68
2022/06/02 01:34:21;;;;;;;9.18;4.00;;;10.20;99.90;;;;;;5033451;28;20033;-68
2022/06/02 01:36:52;;;;;;;14.68;5.22;;;10.20;99.90;;;;;;5035598;28;20051;-68
2022/06/02 01:39:45;;;;;;;6.72;3.83;;;10.20;99.90;;;;;;5036691;28;20135;-68
2022/06/02 01:42:17;;;;;;;13.80;5.10;;;10.20;99.90;;;;;;5036766;28;20075;-68
2022/06/02 01:44:55;;;;;;;12.70;5.57;;;10.20;99.90;;;;;;5036796;28;20405;-68
2022/06/02 01:47:43;;;;;;;16.15;5.03;;;10.20;99.90;;;;;;5036772;28;20167;-68
2022/06/02 01:50:08;;;;;;;15.35;4.47;;;10.20;99.90;;;;;;5036465;28;20025;-68
2022/06/02 01:52:44;;;;;;;11.27;4.50;;;10.10;99.90;;;;;;5036478;28;20021;-68
2022/06/02 01:55:21;;;;;;;10.85;3.83;;;10.10;99.90;;;;;;5036631;28;20033;-68
2022/06/02 01:58:37;;;;;;;8.75;3.90;;;10.10;99.90;;;;;;5036294;28;20022;-68
2022/06/02 02:01:16;;;;;;;15.95;4.40;;;10.10;99.90;;;;;;5018879;28;20049;-68
2022/06/02 02:03:56;;;;;;;24.33;5.75;;;10.10;99.90;;;;;;5036584;28;20112;-68
2022/06/02 02:06:26;;;;;;;6.80;3.63;;;10.10;99.90;;;;;;5036484;28;20029;-69
2022/06/02 02:09:02;;;;;;;7.78;4.47;;;10.00;99.90;;;;;;5035855;28;20036;-69
2022/06/02 02:11:41;;;;;;;13.27;4.88;;;10.10;99.90;;;;;;5036320;28;20026;-69
2022/06/02 02:14:39;;;;;;;17.83;6.25;;;10.10;99.90;;;;;;5035946;28;20056;-69
2022/06/02 02:17:29;;;;;;;17.55;4.80;;;10.10;99.90;;;;;;5033760;28;20037;-69
2022/06/02 02:20:21;;;;;;;23.45;6.40;;;10.10;99.90;;;;;;5035784;28;20392;-69
2022/06/02 02:23:01;;;;;;;17.15;4.93;;;10.10;99.90;;;;;;5036011;28;20030;-69
2022/06/02 02:25:39;;;;;;;15.32;6.00;;;10.10;99.90;;;;;;5032252;28;20151;-68
2022/06/02 02:28:42;;;;;;;27.02;6.35;;;10.10;99.90;;;;;;5036672;28;20068;-68
2022/06/02 02:31:26;;;;;;;13.95;5.28;;;10.10;99.90;;;;;;5017776;28;20033;-68
2022/06/02 02:34:12;;;;;;;19.90;6.38;;;10.10;99.90;;;;;;5015896;28;20033;-68
2022/06/02 02:37:03;;;;;;;15.27;5.07;;;10.10;99.90;;;;;;5015796;28;20095;-68
2022/06/02 02:39:46;;;;;;;23.83;5.95;;;10.10;99.90;;;;;;5015873;28;20044;-68
2022/06/02 02:42:34;;;;;;;32.47;6.07;;;10.10;99.90;;;;;;5015954;28;20022;-68
2022/06/02 02:45:24;;;;;;;24.52;7.55;;;10.10;99.90;;;;;;5015585;28;20482;-68
2022/06/02 02:47:53;;;;;;;13.95;5.22;;;10.10;99.90;;;;;;5015498;28;20060;-68
2022/06/02 02:50:28;;;;;;;23.30;6.03;;;10.10;99.90;;;;;;5015695;28;20120;-68
2022/06/02 02:53:09;;;;;;;28.20;5.68;;;10.10;99.90;;;;;;5015553;28;20022;-68
2022/06/02 02:55:42;;;;;;;11.13;4.60;;;10.20;99.90;;;;;;5015472;28;20496;-68
2022/06/02 02:58:37;;;;;;;12.13;4.72;;;10.20;99.90;;;;;;5015283;28;20032;-68
2022/06/02 03:01:35;;;;;;;13.30;5.78;;;10.20;99.90;;;;;;5015664;28;20390;-68
2022/06/02 03:04:18;;;;;;;14.60;5.82;;;10.30;99.90;;;;;;5015619;28;20021;-68
2022/06/02 03:06:45;;;;;;;21.17;6.22;;;10.30;99.90;;;;;;5015398;28;20032;-68
2022/06/02 03:09:32;;;;;;;21.35;4.85;;;10.30;99.90;;;;;;5015243;28;20470;-68
2022/06/02 03:12:12;;;;;;;22.45;7.03;;;10.30;99.90;;;;;;5015686;28;20026;-68
2022/06/02 03:14:52;;;;;;;18.60;5.95;;;10.40;99.90;;;;;;5015003;28;20033;-68
2022/06/02 03:17:49;;;;;;;27.90;6.00;;;10.40;99.90;;;;;;5014955;28;20022;-68
2022/06/02 03:20:46;;;;;;;21.48;6.45;;;10.40;99.90;;;;;;5009074;28;20141;-68
2022/06/02 03:23:41;;;;;;;17.70;5.30;;;10.50;99.90;;;;;;5015174;28;20030;-68
2022/06/02 03:26:14;;;;;;;27.67;5.82;;;10.60;99.90;;;;;;5014883;28;20036;-68
2022/06/02 03:28:47;;;;;;;;;;;10.60;99.90;;;;;;5015098;28;20022;-68
2022/06/02 03:31:46;;;;;;;21.40;6.55;;;10.60;99.90;;;;;;5014760;28;20357;-68
2022/06/02 03:34:51;;;;;;;11.63;4.85;;;10.60;99.90;;;;;;5006787;28;20505;-68
2022/06/02 03:37:37;;;;;;;29.05;5.32;;;10.60;99.90;;;;;;5014600;28;20030;-68
2022/06/02 03:40:22;;;;;;;19.40;5.43;;;10.60;99.90;;;;;;5014471;28;20100;-68
2022/06/02 03:43:10;;;;;;;18.80;4.97;;;10.60;99.90;;;;;;5014460;28;20113;-68
2022/06/02 03:45:50;;;;;;;24.63;6.15;;;10.60;99.90;;;;;;5014796;28;20097;-68
2022/06/02 03:48:37;;;;;;;17.63;5.72;;;10.50;99.90;;;;;;5014361;28;20029;-68
2022/06/02 03:51:30;;;;;;;21.95;6.07;;;10.50;99.90;;;;;;5014596;28;20018;-68
2022/06/02 03:54:02;;;;;;;23.98;5.90;;;10.60;99.90;;;;;;5014872;28;20033;-68
2022/06/02 03:56:46;;;;;;;26.13;6.32;;;10.60;99.90;;;;;;5014274;28;20205;-68
2022/06/02 03:59:35;;;;;;;;;;;10.60;99.90;;;;;;5014179;28;20057;-68
2022/06/02 04:02:07;;;;;;;34.35;6.72;;;10.60;99.90;;;;;;5014419;28;19913;-68
2022/06/02 04:04:54;;;;;;;26.33;6.25;;;10.60;99.90;;;;;;5014477;28;20437;-68
2022/06/02 04:07:23;;;;;;;31.35;7.60;;;10.70;99.90;;;;;;5014426;28;20030;-68
2022/06/02 04:10:33;;;;;;;27.77;7.15;;;10.70;99.90;;;;;;5014118;28;20056;-68
2022/06/02 04:15:58;;;;;;;22.27;5.88;;;10.80;99.90;;;;;;5032688;28;20144;-68
2022/06/02 04:18:36;;;;;;;26.88;5.88;;;10.80;99.90;;;;;;5013847;28;20079;-68
2022/06/02 04:21:20;;;;;;;20.10;6.13;;;10.80;99.90;;;;;;5013941;28;20490;-68
2022/06/02 04:23:55;;;;;;;26.35;6.75;;;10.80;99.90;;;;;;5014243;28;20378;-68
2022/06/02 04:26:58;;;;;;;20.48;5.32;;;10.80;99.90;;;;;;5014300;28;20164;-68
2022/06/02 04:29:45;;;;;;;23.58;5.78;;;10.90;99.90;;;;;;5012661;28;20116;-68
2022/06/02 04:32:31;;;;;;;19.13;6.03;;;10.90;99.90;;;;;;5013767;28;20637;-69
2022/06/02 04:35:13;;;;;;;21.00;6.25;;;10.90;99.90;;;;;;5014442;28;20033;-69
2022/06/02 04:37:58;;;;;;;28.00;6.78;;;10.90;99.90;;;;;;5014523;28;20030;-69
2022/06/02 04:40:56;;;;;;;22.05;6.28;;;10.90;99.90;;;;;;5013805;28;20041;-69
2022/06/02 04:43:41;;;;;;;22.60;7.38;;;10.90;99.90;;;;;;5014119;28;20033;-69
2022/06/02 04:46:31;;;;;;;26.38;6.97;;;10.90;99.90;;;;;;5013989;28;20382;-68
2022/06/02 04:49:23;;;;;;;18.67;5.95;;;10.90;99.90;;;;;;5013570;28;20393;-68
2022/06/02 04:52:16;;;;;;;27.35;7.07;;;10.90;99.90;;;;;;5014321;28;20108;-68
2022/06/02 04:55:06;;;;;;;28.27;7.90;;;10.90;99.90;;;;;;5014378;28;20022;-68
2022/06/02 04:58:10;;;;;;;23.23;6.93;;;10.90;99.90;;;;;;5013830;28;20036;-68
2022/06/02 05:00:45;;;;;;;25.67;7.32;;;10.90;99.90;;;;;;5014138;28;20485;-68
2022/06/02 05:03:23;;;;;;;29.40;8.43;;;10.90;99.90;;;;;;5013445;28;20033;-69
2022/06/02 05:06:05;;;;;;;26.02;9.82;;;10.90;99.90;;;;;;5013573;28;20088;-69
2022/06/02 05:08:49;;;;;;;27.30;8.55;;;10.90;99.90;;;;;;5013844;28;20045;-69
2022/06/02 05:11:36;;;;;;;28.63;9.13;;;10.80;99.90;;;;;;5015693;28;20026;-69
2022/06/02 05:14:17;;;;;;;21.00;8.93;;;10.80;99.90;;;;;;5017302;28;20067;-69
2022/06/02 05:17:01;;;;;;;29.98;9.80;;;10.80;99.90;;;;;;5017557;28;20057;-69
2022/06/02 05:19:33;;;;;;;;;;;10.80;99.90;;;;;;5017437;28;20059;-69
2022/06/02 05:22:14;;;;;;;27.60;9.90;;;10.80;99.90;;;;;;5017410;28;19909;-69
2022/06/02 05:25:12;;;;;;;44.75;10.68;;;10.80;99.90;;;;;;5017144;28;20105;-68
2022/06/02 05:28:04;;;;;;;28.27;10.07;;;10.70;99.90;;;;;;5017235;28;20030;-68
2022/06/02 05:31:29;;;;;;;40.58;11.15;;;10.70;99.90;;;;;;5017246;28;20383;-68
2022/06/02 05:34:24;;;;;;;27.50;9.82;;;10.60;99.90;;;;;;4995559;28;20030;-69
2022/06/02 05:37:16;;;;;;;44.17;10.88;;;10.60;99.90;;;;;;4995233;28;20039;-69
2022/06/02 05:40:04;;;;;;;33.08;10.02;;;10.60;99.90;;;;;;5013584;28;20038;-69
2022/06/02 05:42:35;;;;;;;27.63;11.38;;;10.60;99.90;;;;;;5016785;28;20030;-69
2022/06/02 05:45:40;;;;;;;28.23;10.85;;;10.60;99.90;;;;;;5017168;28;20026;-69
2022/06/02 05:48:38;;;;;;;37.78;11.88;;;10.60;99.90;;;;;;5004544;28;20034;-69
2022/06/02 05:51:29;;;;;;;175.55;107.60;;;10.60;99.90;;;;;;5016820;28;20022;-69
2022/06/02 05:54:07;;;;;;;48.08;20.35;;;10.70;99.90;;;;;;5016899;28;20033;-68
2022/06/02 05:57:08;;;;;;;29.77;12.30;;;10.70;99.90;;;;;;5016325;28;20030;-69
2022/06/02 05:59:45;;;;;;;38.67;11.45;;;10.70;99.90;;;;;;5036434;28;20465;-69
2022/06/02 06:03:07;;;;;;;39.17;12.45;;;10.70;99.90;;;;;;5036180;28;20079;-69
2022/06/02 06:05:53;;;;;;;54.45;26.20;;;10.80;99.90;;;;;;4975310;28;20041;-69
2022/06/02 06:08:27;;;;;;;48.42;21.60;;;10.80;99.90;;;;;;4976136;28;20387;-69
2022/06/02 06:11:05;;;;;;;123.18;58.92;;;10.80;99.90;;;;;;5022998;28;20433;-69
2022/06/02 06:13:50;;;;;;;57.10;20.52;;;10.80;99.90;;;;;;5029854;28;20060;-69
2022/06/02 06:16:26;;;;;;;;;;;10.90;99.90;;;;;;5036539;28;20034;-69
2022/06/02 06:19:03;;;;;;;40.03;14.80;;;10.90;99.90;;;;;;5065393;23;20367;-67
2022/06/02 06:21:46;;;;;;;38.30;19.50;;;10.90;99.90;;;;;;5074924;28;20100;-67
2022/06/02 06:24:32;;;;;;;48.28;21.38;;;10.90;99.90;;;;;;5075899;28;20024;-67
2022/06/02 06:27:13;;;;;;;89.43;33.47;;;10.90;99.90;;;;;;5075717;28;20034;-67
2022/06/02 06:30:05;;;;;;;79.38;29.27;;;10.90;99.90;;;;;;5075417;28;20059;-67
2022/06/02 06:32:38;;;;;;;79.57;25.20;;;10.90;99.90;;;;;;5075413;28;20056;-67
2022/06/02 06:35:30;;;;;;;;;;;10.90;99.90;;;;;;5075830;28;20112;-67
2022/06/02 06:38:01;;;;;;;128.95;45.40;;;10.90;99.90;;;;;;5075612;28;19908;-66
2022/06/02 06:41:06;;;;;;;165.57;49.25;;;10.90;99.90;;;;;;5075098;28;20032;-66
2022/06/02 06:43:56;;;;;;;138.18;42.05;;;11.10;99.90;;;;;;5071568;28;20102;-66
2022/06/02 06:46:56;;;;;;;160.23;49.08;;;11.20;99.90;;;;;;5074933;28;20031;-66
2022/06/02 06:49:38;;;;;;;189.02;51.10;;;11.30;99.90;;;;;;5075297;28;20036;-65
2022/06/02 06:52:28;;;;;;;102.07;28.80;;;11.30;99.90;;;;;;5075201;28;20032;-65
2022/06/02 06:55:19;;;;;;;205.68;63.65;;;11.30;99.90;;;;;;5075236;28;20043;-67
2022/06/02 06:58:06;;;;;;;156.80;76.72;;;11.40;99.90;;;;;;5075123;28;20028;-67
2022/06/02 07:00:46;;;;;;;37.13;14.82;;;11.40;99.90;;;;;;5075082;28;20021;-67
2022/06/02 07:03:36;;;;;;;31.45;10.73;;;11.50;99.90;;;;;;5074995;28;20055;-67
2022/06/02 07:06:35;;;;;;;35.72;11.55;;;11.60;99.90;;;;;;5074772;28;20035;-67
2022/06/02 07:09:19;;;;;;;34.13;9.02;;;11.80;99.90;;;;;;5074802;28;20028;-67
2022/06/02 07:14:50;;;;;;;25.88;8.55;;;11.70;99.90;;;;;;5081516;28;20271;-66
2022/06/02 07:17:53;;;;;;;22.02;8.50;;;11.70;99.90;;;;;;5074716;28;20024;-66
2022/06/02 07:20:31;;;;;;;24.08;8.23;;;11.70;99.90;;;;;;5074070;28;20530;-66
2022/06/02 07:23:18;;;;;;;16.30;7.05;;;11.60;99.90;;;;;;5074632;28;20032;-66
2022/06/02 07:26:23;;;;;;;35.05;7.57;;;11.70;99.90;;;;;;5074365;28;20025;-66
2022/06/02 07:29:14;;;;;;;27.65;7.90;;;11.70;99.90;;;;;;5043327;28;20051;-66
2022/06/02 07:32:02;;;;;;;28.15;8.77;;;11.60;99.90;;;;;;5074424;28;20054;-66
2022/06/02 07:35:06;;;;;;;17.23;6.93;;;11.70;99.90;;;;;;5073459;28;20058;-66
2022/06/02 07:37:34;;;;;;;33.97;7.75;;;11.70;99.90;;;;;;5074285;28;20028;-66
2022/06/02 07:40:28;;;;;;;24.75;8.52;;;11.70;99.90;;;;;;5074461;28;20043;-66
2022/06/02 07:43:21;;;;;;;26.20;8.63;;;11.70;99.90;;;;;;5064457;28;20029;-67
2022/06/02 07:45:51;;;;;;;26.88;9.40;;;11.80;99.90;;;;;;5054446;28;20087;-66
2022/06/02 07:48:31;;;;;;;19.40;8.07;;;11.90;99.90;;;;;;5054733;28;20020;-66
2022/06/02 07:51:20;;;;;;;30.45;9.32;;;11.90;99.90;;;;;;5053973;28;20074;-66
2022/06/02 07:54:19;;;;;;;24.25;9.15;;;12.00;99.90;;;;;;5054106;28;20024;-66
2022/06/02 07:57:09;;;;;;;26.27;10.45;;;12.10;99.90;;;;;;5053993;28;20036;-66
2022/06/02 07:59:55;;;;;;;38.28;12.50;;;12.20;99.90;;;;;;5053768;28;20032;-66
2022/06/02 08:02:38;;;;;;;29.35;7.93;;;12.30;99.90;;;;;;5053925;28;20039;-66
2022/06/02 08:05:19;;;;;;;29.27;8.20;;;12.40;99.90;;;;;;5053895;28;20057;-66
2022/06/02 08:08:01;;;;;;;30.73;8.45;;;12.50;99.90;;;;;;5053530;28;20477;-66
2022/06/02 08:10:41;;;;;;;32.13;8.02;;;12.70;99.90;;;;;;5067050;28;20032;-66
2022/06/02 08:13:28;;;;;;;30.98;8.93;;;13.00;99.90;;;;;;5073681;28;20021;-67
2022/06/02 08:16:00;;;;;;;25.05;8.32;;;13.20;99.90;;;;;;5073525;28;20025;-66
2022/06/02 08:18:43;;;;;;;21.73;6.90;;;13.20;99.90;;;;;;5073517;28;20067;-66
2022/06/02 08:21:21;;;;;;;22.17;5.97;;;13.20;99.90;;;;;;5074034;28;20427;-66
2022/06/02 08:24:07;;;;;;;19.02;5.25;;;13.10;99.90;;;;;;5073753;28;20021;-66
2022/06/02 08:27:06;;;;;;;31.02;8.18;;;13.00;99.90;;;;;;5073400;28;20016;-66
2022/06/02 08:30:01;;;;;;;23.80;7.28;;;13.00;99.90;;;;;;5073478;28;20033;-67
2022/06/02 08:32:41;;;;;;;15.60;5.18;;;12.90;99.90;;;;;;5073620;28;20032;-67
2022/06/02 08:35:23;;;;;;;23.15;6.53;;;12.90;99.90;;;;;;5073167;28;20024;-67
2022/06/02 08:38:00;;;;;;;27.98;5.70;;;12.90;99.90;;;;;;5073438;28;20487;-67
2022/06/02 08:40:57;;;;;;;16.10;6.13;;;13.00;99.90;;;;;;5073453;28;20086;-67
2022/06/02 08:44:24;;;;;;;20.65;4.95;;;13.00;99.90;;;;;;5073039;28;20033;-67
2022/06/02 08:47:38;;;;;;;18.05;6.40;;;12.70;99.90;;;;;;4977213;28;20035;-67
2022/06/02 08:50:29;;;;;;;37.55;7.05;;;12.70;99.90;;;;;;4976929;28;20050;-67
2022/06/02 08:53:32;;;;;;;30.38;7.35;;;12.70;99.90;;;;;;5057515;28;20021;-67
2022/06/02 08:56:30;;;;;;;23.30;6.40;;;12.80;99.90;;;;;;5067501;28;20058;-67
2022/06/02 08:59:04;;;;;;;17.05;4.55;;;12.70;99.90;;;;;;5077084;28;20027;-67
2022/06/02 09:01:39;;;;;;;20.00;5.35;;;12.70;99.90;;;;;;5077641;28;20112;-67
2022/06/02 09:04:19;;;;;;;20.98;5.97;;;12.60;99.90;;;;;;5077149;28;20353;-67
2022/06/02 09:07:19;;;;;;;18.08;5.50;;;12.60;99.90;;;;;;5077067;28;20559;-67
2022/06/02 09:10:06;;;;;;;15.70;5.35;;;12.50;99.90;;;;;;5076725;28;20025;-67
2022/06/02 09:12:55;;;;;;;14.30;5.50;;;12.50;99.90;;;;;;5076930;28;20121;-67
2022/06/02 09:15:34;;;;;;;22.70;5.93;;;12.60;99.90;;;;;;5076487;28;20027;-67
2022/06/02 09:18:17;;;;;;;17.88;5.55;;;12.60;99.90;;;;;;5077024;28;20055;-67
2022/06/02 09:20:50;;;;;;;11.53;3.70;;;12.70;99.90;;;;;;5076788;28;20045;-67
2022/06/02 09:23:15;;;;;;;19.98;6.05;;;12.70;99.90;;;;;;5076676;28;20408;-67
2022/06/02 09:25:47;;;;;;;25.75;6.75;;;12.80;99.90;;;;;;5076461;28;20024;-67
2022/06/02 09:28:50;;;;;;;24.50;5.78;;;12.70;99.90;;;;;;5076707;28;20523;-67
2022/06/02 09:31:20;;;;;;;31.70;6.72;;;12.50;99.90;;;;;;5056597;28;20098;-67
2022/06/02 09:34:12;;;;;;;15.25;6.38;;;12.40;99.90;;;;;;5056728;28;20032;-67
2022/06/02 09:36:49;;;;;;;28.83;6.95;;;12.30;99.90;;;;;;5056930;28;20032;-67
2022/06/02 09:39:47;;;;;;;30.63;8.90;;;12.20;99.90;;;;;;5056213;28;20392;-67
2022/06/02 09:42:22;;;;;;;20.23;5.40;;;12.20;99.90;;;;;;5056232;28;20067;-67
2022/06/02 09:45:06;;;;;;;14.65;5.55;;;12.30;99.90;;;;;;5056377;28;20492;-68
2022/06/02 09:47:50;;;;;;;17.20;5.53;;;12.30;99.90;;;;;;5056379;28;20086;-67
2022/06/02 09:50:35;;;;;;;27.52;8.25;;;12.40;99.90;;;;;;5067937;28;20059;-67
2022/06/02 09:53:15;;;;;;;27.38;6.18;;;12.70;99.90;;;;;;5075804;28;20430;-67
2022/06/02 09:56:07;;;;;;;25.38;5.50;;;13.00;99.90;;;;;;5076456;28;20021;-67
2022/06/02 09:58:42;;;;;;;21.08;7.32;;;13.30;99.90;;;;;;5076107;28;20032;-67
2022/06/02 10:01:13;;;;;;;25.75;8.65;;;13.40;99.90;;;;;;5075838;28;20025;-67
2022/06/02 10:04:01;;;;;;;49.95;20.48;;;13.40;99.90;;;;;;5076056;28;20579;-67
2022/06/02 10:06:48;;;;;;;32.20;12.77;;;13.30;99.90;;;;;;5075869;28;20103;-67
2022/06/02 10:09:22;;;;;;;32.30;12.13;;;13.20;99.90;;;;;;5075968;28;20423;-68
2022/06/02 10:15:19;;;;;;;72.55;31.30;;;13.00;99.90;;;;;;5076264;28;20024;-69
2022/06/02 10:18:12;;;;;;;77.10;38.28;;;12.90;99.90;;;;;;5075656;28;20025;-69
2022/06/02 10:20:43;;;;;;;81.97;36.67;;;12.80;99.90;;;;;;5075509;28;20422;-69
2022/06/02 10:23:34;;;;;;;36.28;13.30;;;12.80;99.90;;;;;;5075486;28;20035;-69
2022/06/02 10:26:09;;;;;;;46.72;19.70;;;12.90;99.90;;;;;;5074918;28;20025;-68
2022/06/02 10:29:04;;;;;;;38.55;15.50;;;13.00;99.90;;;;;;5074090;28;20427;-68
2022/06/02 10:32:10;;;;;;;62.95;28.15;;;13.20;99.90;;;;;;5070841;28;20051;-68
2022/06/02 10:35:17;;;;;;;35.13;14.57;;;13.30;99.90;;;;;;5072400;28;20028;-68
2022/06/02 10:38:05;;;;;;;42.75;17.52;;;13.30;99.90;;;;;;5072444;28;20163;-68
2022/06/02 10:41:01;;;;;;;67.03;30.85;;;13.30;99.90;;;;;;5066873;28;20039;-69
2022/06/02 10:43:27;;;;;;;19.63;9.05;;;13.20;99.90;;;;;;5070756;28;20112;-68
2022/06/02 10:46:10;;;;;;;19.73;6.93;;;13.10;99.90;;;;;;5073981;28;20100;-68
2022/06/02 10:49:07;;;;;;;38.58;16.73;;;13.10;99.90;;;;;;5071118;28;20028;-69
2022/06/02 10:52:10;;;;;;;43.30;24.98;;;13.20;99.90;;;;;;5067421;28;20040;-69
2022/06/02 10:54:54;;;;;;;25.80;9.30;;;13.30;99.90;;;;;;5067363;28;20032;-69
2022/06/02 10:57:38;;;;;;;16.23;7.10;;;13.40;99.90;;;;;;5072654;28;20093;-69
2022/06/02 11:00:17;;;;;;;26.15;8.38;;;13.30;99.90;;;;;;5066694;28;20039;-67
2022/06/02 11:03:15;;;;;;;30.83;12.23;;;13.20;99.90;;;;;;5072237;28;20029;-69
2022/06/02 11:06:44;;;;;;;56.47;27.33;;;13.40;99.90;;;;;;5074006;28;20020;-69
2022/06/02 11:09:34;;;;;;;15.07;8.27;;;13.60;99.90;;;;;;4972651;28;20050;-69
2022/06/02 11:12:20;;;;;;;16.35;5.93;;;13.60;99.90;;;;;;5062733;28;20036;-70
2022/06/02 11:14:50;;;;;;;19.08;5.28;;;13.70;99.90;;;;;;5071975;28;20055;-69
2022/06/02 11:17:36;;;;;;;16.90;4.57;;;13.60;99.90;;;;;;5074421;28;20048;-70
2022/06/02 11:20:28;;;;;;;19.23;5.18;;;13.50;99.90;;;;;;5074009;28;20040;-69
2022/06/02 11:23:20;;;;;;;16.92;5.70;;;13.40;99.90;;;;;;5073358;28;20480;-70
2022/06/02 11:25:49;;;;;;;26.45;5.68;;;13.50;99.90;;;;;;5049475;28;20501;-70
2022/06/02 11:28:29;;;;;;;18.63;5.80;;;13.70;99.90;;;;;;5060978;28;20372;-70
2022/06/02 11:31:19;;;;;;;27.25;4.38;;;13.70;99.90;;;;;;5074296;28;20441;-70
2022/06/02 11:34:04;;;;;;;23.48;5.80;;;13.60;99.90;;;;;;5073777;28;20036;-70
2022/06/02 11:36:53;;;;;;;26.25;5.13;;;13.40;99.90;;;;;;5072186;28;20035;-68
2022/06/02 11:39:56;;;;;;;24.55;5.32;;;13.10;99.90;;;;;;5062663;28;20063;-67
2022/06/02 11:42:37;;;;;;;25.20;5.28;;;13.10;99.90;;;;;;5063824;28;20035;-66
2022/06/02 11:45:27;;;;;;;22.48;4.32;;;13.20;99.90;;;;;;5074045;28;20081;-67
2022/06/02 11:48:01;;;;;;;14.13;5.63;;;13.40;99.90;;;;;;5073770;28;20028;-67
2022/06/02 11:50:51;;;;;;;21.08;5.65;;;13.50;99.90;;;;;;5073814;28;20078;-66
2022/06/02 11:53:52;;;;;;;20.63;5.07;;;13.40;99.90;;;;;;5073900;28;20523;-66
2022/06/02 11:56:38;;;;;;;22.20;5.88;;;13.40;99.90;;;;;;5073466;28;20124;-66
2022/06/02 11:59:35;;;;;;;21.92;9.68;;;13.50;99.90;;;;;;5073871;28;20020;-66
2022/06/02 12:02:06;;;;;;;29.38;18.98;;;13.50;99.90;;;;;;5073631;28;20411;-66
2022/06/02 12:04:53;;;;;;;34.03;13.35;;;13.40;99.90;;;;;;5073750;28;20031;-66
2022/06/02 12:08:02;;;;;;;69.82;33.42;;;13.20;99.90;;;;;;5073793;28;20027;-66
2022/06/02 12:11:02;;;;;;;29.52;10.15;;;13.20;99.90;;;;;;5036600;28;20485;-66
2022/06/02 12:13:56;;;;;;;24.70;11.88;;;13.10;99.90;;;;;;5074110;28;20028;-66
2022/06/02 12:16:49;;;;;;;19.13;7.45;;;13.10;99.90;;;;;;5058368;28;20096;-66
2022/06/02 12:19:21;;;;;;;36.78;15.27;;;13.00;99.90;;;;;;5081472;23;20354;-68
2022/06/02 12:21:46;;;;;;;46.95;16.98;;;12.90;99.90;;;;;;5034012;28;20025;-70
2022/06/02 12:24:43;;;;;;;44.65;14.38;;;12.90;99.90;;;;;;5035066;28;20136;-73
2022/06/02 12:27:13;;;;;;;40.35;12.35;;;13.00;99.90;;;;;;5034058;28;20037;-72
2022/06/02 12:30:06;;;;;;;66.95;27.80;;;13.00;99.90;;;;;;5034080;28;20022;-72
2022/06/02 12:32:59;;;;;;;38.90;15.18;;;13.10;99.90;;;;;;5034277;28;20021;-73
2022/06/02 12:35:42;;;;;;;120.25;44.25;;;13.10;99.90;;;;;;5032668;28;20026;-73
2022/06/02 12:38:40;;;;;;;79.63;30.92;;;13.20;99.90;;;;;;5034219;28;20083;-73
2022/06/02 12:41:20;;;;;;;57.85;20.15;;;13.30;99.90;;;;;;5033930;28;20033;-73
2022/06/02 12:43:57;;;;;;;127.13;39.33;;;13.30;99.90;;;;;;5033812;28;20491;-73
2022/06/02 12:46:44;;;;;;;83.95;28.55;;;13.30;99.90;;;;;;5033747;28;20224;-73
2022/06/02 12:49:09;;;;;;;100.90;31.30;;;13.30;99.90;;;;;;5034171;28;20026;-73
2022/06/02 12:51:53;;;;;;;181.23;58.97;;;13.40;99.90;;;;;;5034055;28;20067;-73
2022/06/02 12:54:56;;;;;;;98.72;33.20;;;13.40;99.90;;;;;;5033832;28;20032;-73
2022/06/02 12:57:47;;;;;;;130.77;41.70;;;13.50;99.90;;;;;;5033719;28;20029;-73
2022/06/02 13:00:48;;;;;;;39.42;19.05;;;13.70;99.90;;;;;;5034202;28;20028;-73
2022/06/02 13:03:22;;;;;;;20.50;10.82;;;14.00;99.90;;;;;;5033966;28;20025;-73
2022/06/02 13:06:09;;;;;;;17.67;5.00;;;14.20;99.90;;;;;;5033838;28;20028;-73
2022/06/02 13:09:15;;;;;;;19.38;4.03;;;14.30;99.90;;;;;;5033823;28;20079;-73
2022/06/02 13:11:46;;;;;;;19.60;4.85;;;14.10;99.90;;;;;;5032235;28;20435;-73
2022/06/02 13:14:18;;;;;;;25.05;7.40;;;13.90;99.90;;;;;;5033478;28;20076;-73
2022/06/02 13:17:14;;;;;;;23.73;7.10;;;13.70;99.90;;;;;;5033515;28;20439;-73
2022/06/02 13:20:10;;;;;;;25.42;8.00;;;13.60;99.90;;;;;;5033403;28;20083;-73
2022/06/02 13:23:13;;;;;;;18.00;4.65;;;13.90;99.90;;;;;;5032138;28;20088;-73
2022/06/02 13:25:53;;;;;;;18.25;4.03;;;14.60;99.90;;;;;;5033454;28;20489;-73
2022/06/02 13:28:58;;;;;;;18.45;4.13;;;15.10;99.90;;;;;;5033281;28;20469;-73
2022/06/02 13:32:01;;;;;;;27.42;5.38;;;14.90;99.90;;;;;;5034037;28;20112;-73
2022/06/02 13:34:35;;;;;;;23.77;4.40;;;14.60;99.90;;;;;;5037272;28;20053;-73
2022/06/02 13:37:35;;;;;;;22.33;5.43;;;14.40;99.90;;;;;;5037122;28;20499;-73
2022/06/02 13:40:37;;;;;;;24.50;10.00;;;14.30;99.90;;;;;;5037082;28;20079;-73
2022/06/02 13:43:40;;;;;;;51.97;16.45;;;14.30;99.90;;;;;;5037132;28;20111;-73
2022/06/02 13:46:21;;;;;;;44.92;14.95;;;14.40;99.90;;;;;;5036823;28;20033;-73
2022/06/02 13:49:25;;;;;;;23.38;7.80;;;14.50;99.90;;;;;;5037036;28;20017;-73
2022/06/02 13:52:05;;;;;;;19.17;5.15;;;14.80;99.90;;;;;;5036826;28;20023;-73
2022/06/02 13:58:09;;;;;;;26.05;4.68;;;14.50;99.90;;;;;;5036550;28;20028;-73
2022/06/02 14:00:50;;;;;;;20.52;4.63;;;14.20;99.90;;;;;;5032530;28;20511;-72
2022/06/02 14:03:38;;;;;;;15.95;4.60;;;14.10;99.90;;;;;;5036580;28;20025;-73
2022/06/02 14:06:06;;;;;;;18.58;4.53;;;13.90;99.90;;;;;;5033426;28;20053;-73
2022/06/02 14:08:44;;;;;;;23.98;3.90;;;14.00;99.90;;;;;;5036464;28;20381;-73
2022/06/02 14:11:24;;;;;;;22.88;4.57;;;14.10;99.90;;;;;;5036812;28;20028;-73
2022/06/02 14:14:22;;;;;;;17.83;4.30;;;14.00;99.90;;;;;;5036503;28;20534;-73
2022/06/02 14:17:05;;;;;;;14.52;3.47;;;14.00;99.90;;;;;;5036639;28;20064;-73
2022/06/02 14:19:49;;;;;;;25.10;6.70;;;14.00;99.90;;;;;;5036219;28;20032;-73
2022/06/02 14:22:46;;;;;;;28.20;5.13;;;13.90;99.90;;;;;;5036156;28;20032;-73
2022/06/02 14:25:30;;;;;;;27.02;5.50;;;14.00;99.90;;;;;;5036507;28;20056;-73
2022/06/02 14:28:25;;;;;;;15.63;5.13;;;14.20;99.90;;;;;;5036330;28;20548;-73
2022/06/02 14:30:54;;;;;;;20.52;4.78;;;14.30;99.90;;;;;;5034681;28;20021;-73